Time;durP1;ratioP1;P1;durP2;ratioP2;P2;SDS_P1;SDS_P2;PMS_P1;PMS_P2;Temp;Humidity;BMP_temperature;BMP_pressure;BME280_temperature;BME280_humidity;BME280_pressure;Samples;Min_cycle;Max_cycle;Signal;HPM_P1;HPM_P2
2022/05/10 03:01:05;;;;;;;15.15;7.95;;;13.70;99.90;;;;;;5706350;23;20635;-83
2022/05/10 03:03:33;;;;;;;16.25;7.40;;;13.70;99.90;;;;;;4941516;28;20047;-83
2022/05/10 03:05:58;;;;;;;12.48;7.63;;;13.70;99.90;;;;;;4958158;28;20053;-83
2022/05/10 03:08:24;;;;;;;12.35;7.43;;;13.70;99.90;;;;;;4975485;28;20038;-83
2022/05/10 03:10:50;;;;;;;16.95;8.02;;;13.70;99.90;;;;;;4958090;28;20043;-81
2022/05/10 03:13:16;;;;;;;14.20;7.75;;;13.60;99.90;;;;;;4958770;28;20046;-84
2022/05/10 03:15:42;;;;;;;18.50;7.85;;;13.60;99.90;;;;;;4977578;28;20054;-79
2022/05/10 03:18:08;;;;;;;13.60;7.43;;;13.60;99.90;;;;;;4970606;28;20046;-79
2022/05/10 03:20:33;;;;;;;15.30;8.05;;;13.60;99.90;;;;;;4971385;28;20050;-79
2022/05/10 03:22:59;;;;;;;15.32;8.07;;;13.50;99.90;;;;;;4971633;28;20074;-79
2022/05/10 03:25:28;;;;;;;17.70;8.30;;;13.50;99.90;;;;;;4971228;28;20042;-82
2022/05/10 03:27:54;;;;;;;18.52;8.38;;;13.50;99.90;;;;;;4971649;28;20113;-80
2022/05/10 03:30:20;;;;;;;16.73;8.85;;;13.50;99.90;;;;;;4972102;28;20058;-80
2022/05/10 03:32:45;;;;;;;18.55;9.30;;;13.50;99.90;;;;;;4962953;28;20039;-82
2022/05/10 03:35:12;;;;;;;16.65;8.52;;;13.50;99.90;;;;;;4961122;28;20062;-85
2022/05/10 03:37:37;;;;;;;16.35;8.15;;;13.50;99.90;;;;;;4960877;28;20144;-84
2022/05/10 03:40:03;;;;;;;15.80;8.30;;;13.40;99.90;;;;;;4977455;28;20082;-83
2022/05/10 03:42:29;;;;;;;17.50;8.60;;;13.50;99.90;;;;;;4944630;28;20042;-84
2022/05/10 03:44:55;;;;;;;18.15;8.57;;;13.40;99.90;;;;;;4978545;28;20534;-83
2022/05/10 03:47:24;;;;;;;13.00;8.05;;;13.50;99.90;;;;;;4976887;28;20069;-85
2022/05/10 03:49:50;;;;;;;19.00;8.90;;;13.50;99.90;;;;;;4976180;28;20023;-83
2022/05/10 03:52:15;;;;;;;18.40;9.07;;;13.40;99.90;;;;;;4958757;28;20057;-85
2022/05/10 03:54:43;;;;;;;17.30;8.52;;;13.40;99.90;;;;;;4976010;28;20403;-82
2022/05/10 03:57:12;;;;;;;17.25;8.38;;;13.40;99.90;;;;;;4957824;28;20147;-83
2022/05/10 03:59:41;;;;;;;16.38;8.38;;;13.40;99.90;;;;;;4976369;28;20078;-83
2022/05/10 04:02:10;;;;;;;17.10;8.02;;;13.40;99.90;;;;;;4959419;28;20050;-84
2022/05/10 04:04:35;;;;;;;15.55;9.40;;;13.40;99.90;;;;;;4979955;28;20104;-86
2022/05/10 04:07:01;;;;;;;17.67;8.80;;;13.40;99.90;;;;;;4961363;28;20459;-82
2022/05/10 04:09:27;;;;;;;14.05;8.35;;;13.40;99.90;;;;;;4961692;28;20173;-82
2022/05/10 04:11:52;;;;;;;20.08;8.40;;;13.40;99.90;;;;;;4979366;28;20459;-82
2022/05/10 04:14:18;;;;;;;18.08;8.32;;;13.50;99.90;;;;;;4961456;28;20117;-83
2022/05/10 04:16:44;;;;;;;19.38;9.75;;;13.50;99.90;;;;;;4979164;28;20050;-84
2022/05/10 04:19:10;;;;;;;17.58;9.20;;;13.40;99.90;;;;;;4961160;28;20034;-85
2022/05/10 04:21:35;;;;;;;15.18;8.82;;;13.50;99.90;;;;;;4982537;28;20043;-81
2022/05/10 04:24:01;;;;;;;19.48;8.82;;;13.50;99.90;;;;;;4984231;28;20121;-85
2022/05/10 04:26:26;;;;;;;15.02;8.85;;;13.50;99.90;;;;;;4971350;28;20461;-81
2022/05/10 04:28:54;;;;;;;19.10;9.07;;;13.50;99.90;;;;;;4991766;28;20098;-79
2022/05/10 04:31:20;;;;;;;17.02;9.13;;;13.50;99.90;;;;;;4985871;28;20039;-84
2022/05/10 04:33:45;;;;;;;17.17;9.23;;;13.50;99.90;;;;;;4980743;28;20039;-85
2022/05/10 04:36:11;;;;;;;19.50;9.18;;;13.60;99.90;;;;;;4962069;28;20174;-84
2022/05/10 04:38:37;;;;;;;17.17;9.35;;;13.60;99.90;;;;;;4960813;28;20403;-85
2022/05/10 04:43:47;;;;;;;14.77;8.90;;;13.60;99.90;;;;;;4977905;28;20047;-83
2022/05/10 04:46:13;;;;;;;16.33;9.68;;;13.60;99.90;;;;;;4978689;28;20493;-83
2022/05/10 04:48:38;;;;;;;15.75;8.68;;;13.70;99.90;;;;;;4944920;28;20026;-81
2022/05/10 04:51:06;;;;;;;16.77;9.25;;;13.70;99.90;;;;;;4961194;28;20545;-84
2022/05/10 04:53:31;;;;;;;17.15;9.07;;;13.70;99.90;;;;;;4978092;28;20070;-83
2022/05/10 04:55:57;;;;;;;19.33;9.55;;;13.80;99.90;;;;;;4978656;28;20038;-83
2022/05/10 04:58:23;;;;;;;14.45;9.07;;;13.80;99.90;;;;;;4960048;28;20047;-83
2022/05/10 05:00:49;;;;;;;19.17;9.68;;;13.80;99.90;;;;;;4960860;28;20038;-83
2022/05/10 05:03:15;;;;;;;16.77;9.63;;;13.80;99.90;;;;;;4960348;28;20047;-80
2022/05/10 05:05:41;;;;;;;14.95;8.98;;;13.90;99.90;;;;;;4960221;28;20093;-82
2022/05/10 05:08:06;;;;;;;18.60;9.00;;;13.90;99.90;;;;;;4978124;28;20042;-83
2022/05/10 05:10:32;;;;;;;17.75;10.18;;;14.00;99.90;;;;;;4944337;28;20039;-81
2022/05/10 05:12:58;;;;;;;18.67;10.82;;;14.00;99.90;;;;;;4962091;28;20042;-86
2022/05/10 05:15:24;;;;;;;17.80;9.95;;;14.10;99.90;;;;;;4961674;28;20050;-88
2022/05/10 05:17:49;;;;;;;19.08;10.10;;;14.10;99.90;;;;;;4962866;28;20061;-86
2022/05/10 05:20:15;;;;;;;16.90;9.60;;;14.20;99.90;;;;;;4960967;28;20402;-86
2022/05/10 05:22:40;;;;;;;16.30;9.30;;;14.20;99.90;;;;;;4944422;28;20542;-88
2022/05/10 05:25:07;;;;;;;15.57;8.80;;;14.20;99.90;;;;;;4962061;28;20051;-86
2022/05/10 05:27:33;;;;;;;14.10;8.85;;;14.30;99.90;;;;;;4945061;28;20043;-87
2022/05/10 05:29:59;;;;;;;20.13;9.27;;;14.30;99.90;;;;;;4961887;28;20078;-88
2022/05/10 05:32:30;;;;;;;15.27;8.88;;;14.40;99.90;;;;;;4962264;28;20059;-89
2022/05/10 05:34:59;;;;;;;15.75;9.55;;;14.40;99.90;;;;;;4944963;28;20406;-89
2022/05/10 05:37:34;;;;;;;16.52;9.63;;;14.50;99.90;;;;;;4959705;28;20039;-86
2022/05/10 05:40:08;;;;;;;15.05;8.85;;;14.50;99.90;;;;;;4960177;28;20043;-87
2022/05/10 05:42:34;;;;;;;18.20;8.70;;;14.60;99.90;;;;;;4960758;28;20053;-87
2022/05/10 05:45:00;;;;;;;16.20;8.43;;;14.60;99.90;;;;;;4961294;28;20419;-88
2022/05/10 05:47:27;;;;;;;17.25;7.85;;;14.70;99.90;;;;;;4943946;28;20051;-88
2022/05/10 05:49:53;;;;;;;16.23;8.05;;;14.70;99.90;;;;;;4943471;28;20182;-87
2022/05/10 05:52:21;;;;;;;16.38;8.43;;;14.70;99.90;;;;;;4977419;28;20031;-89
2022/05/10 05:54:51;;;;;;;14.40;8.30;;;14.80;99.90;;;;;;4961220;28;20171;-86
2022/05/10 05:57:18;;;;;;;12.80;7.85;;;14.80;99.90;;;;;;4978012;28;20045;-88
2022/05/10 05:59:43;;;;;;;14.43;8.43;;;14.90;99.90;;;;;;4977412;28;20082;-87
2022/05/10 06:02:12;;;;;;;15.50;8.32;;;14.90;99.90;;;;;;4944889;28;20039;-87
2022/05/10 06:04:38;;;;;;;17.50;9.38;;;15.00;99.90;;;;;;4960204;28;20049;-88
2022/05/10 06:07:04;;;;;;;15.35;8.00;;;15.10;99.90;;;;;;4943850;28;20039;-85
2022/05/10 06:09:29;;;;;;;18.35;8.68;;;15.20;99.90;;;;;;4959551;28;20483;-86
2022/05/10 06:11:55;;;;;;;13.73;8.68;;;15.30;99.90;;;;;;4978483;28;20039;-88
2022/05/10 06:14:20;;;;;;;16.50;8.38;;;15.30;99.90;;;;;;4960957;28;20046;-87
2022/05/10 06:16:46;;;;;;;14.73;8.45;;;15.40;99.90;;;;;;4977265;28;20446;-86
2022/05/10 06:19:12;;;;;;;14.02;8.15;;;15.50;99.90;;;;;;4943774;28;20065;-86
2022/05/10 06:21:40;;;;;;;12.48;7.75;;;15.60;99.90;;;;;;4960654;28;20097;-88
2022/05/10 06:24:06;;;;;;;12.38;7.30;;;15.70;99.90;;;;;;4959525;28;20403;-82
2022/05/10 06:26:34;;;;;;;17.95;7.95;;;15.80;99.90;;;;;;4975657;28;20042;-86
2022/05/10 06:28:59;;;;;;;11.63;7.75;;;15.90;99.90;;;;;;4960086;28;20081;-83
2022/05/10 06:31:25;;;;;;;10.98;7.22;;;16.00;99.90;;;;;;4975883;28;20074;-81
2022/05/10 06:33:51;;;;;;;15.88;7.88;;;16.10;99.90;;;;;;4958493;28;20054;-82
2022/05/10 06:36:16;;;;;;;16.92;7.97;;;16.10;99.90;;;;;;4958266;28;20039;-83
2022/05/10 06:38:42;;;;;;;12.35;7.63;;;16.20;99.90;;;;;;4958416;28;20049;-85
2022/05/10 06:41:07;;;;;;;14.45;7.30;;;16.30;99.90;;;;;;4975518;28;20045;-84
2022/05/10 06:43:35;;;;;;;17.25;7.90;;;16.40;99.90;;;;;;4942611;28;20050;-83
2022/05/10 06:46:07;;;;;;;12.75;7.70;;;16.50;99.90;;;;;;4958321;28;20479;-83
2022/05/10 06:48:33;;;;;;;15.50;7.50;;;16.60;99.90;;;;;;4958694;28;20606;-86
2022/05/10 06:50:59;;;;;;;14.80;7.50;;;16.70;99.90;;;;;;4975648;28;20243;-83
2022/05/10 06:53:25;;;;;;;15.07;7.75;;;16.80;99.90;;;;;;4975285;28;20045;-85
2022/05/10 06:55:51;;;;;;;13.35;7.00;;;16.90;99.90;;;;;;4975686;28;20390;-86
2022/05/10 06:58:16;;;;;;;14.23;7.03;;;17.00;99.90;;;;;;4957765;28;20191;-83
2022/05/10 07:00:42;;;;;;;10.68;6.72;;;17.10;99.90;;;;;;4957569;28;20074;-86
2022/05/10 07:03:14;;;;;;;15.77;6.95;;;17.30;99.90;;;;;;4958042;28;20055;-84
2022/05/10 07:05:42;;;;;;;18.98;6.95;;;17.40;99.90;;;;;;4957376;28;20053;-81
2022/05/10 07:08:08;;;;;;;13.70;6.10;;;17.60;99.90;;;;;;4957449;28;20046;-84
2022/05/10 07:10:34;;;;;;;11.55;6.40;;;17.70;99.90;;;;;;4957746;28;20041;-84
2022/05/10 07:13:00;;;;;;;16.08;7.07;;;17.80;99.90;;;;;;4975293;28;20375;-83
2022/05/10 07:15:25;;;;;;;16.27;6.55;;;18.00;99.90;;;;;;4941492;28;20376;-83
2022/05/10 07:17:52;;;;;;;11.98;6.05;;;18.10;99.90;;;;;;4957281;28;20101;-82
2022/05/10 07:20:19;;;;;;;14.50;6.25;;;18.20;99.90;;;;;;4957224;28;20050;-82
2022/05/10 07:22:46;;;;;;;11.88;5.72;;;18.30;99.90;;;;;;4975477;28;20426;-83
2022/05/10 07:25:17;;;;;;;11.48;6.07;;;18.40;99.90;;;;;;4957102;28;20129;-83
2022/05/10 07:27:44;;;;;;;12.55;5.68;;;18.50;99.90;;;;;;4957051;28;20066;-81
2022/05/10 07:30:11;;;;;;;13.95;6.00;;;18.60;99.90;;;;;;4957348;28;20054;-84
2022/05/10 07:32:37;;;;;;;10.18;5.18;;;18.80;99.90;;;;;;4956886;28;20043;-83
2022/05/10 07:35:04;;;;;;;14.18;5.30;;;18.90;99.90;;;;;;4974475;28;20049;-82
2022/05/10 07:37:30;;;;;;;13.30;5.68;;;19.00;99.90;;;;;;4959853;28;20046;-81
2022/05/10 07:39:56;;;;;;;12.52;5.22;;;19.10;99.90;;;;;;4978343;28;20047;-83
2022/05/10 07:42:22;;;;;;;10.98;5.38;;;19.20;99.90;;;;;;4961089;28;20034;-80
2022/05/10 07:44:51;;;;;;;10.85;4.53;;;19.30;99.90;;;;;;4978464;28;20120;-81
2022/05/10 07:47:17;;;;;;;12.23;4.60;;;19.30;99.90;;;;;;4978197;28;20031;-82
2022/05/10 07:49:43;;;;;;;12.82;5.53;;;19.40;99.90;;;;;;4960838;28;20070;-81
2022/05/10 07:52:09;;;;;;;10.95;4.55;;;19.40;99.90;;;;;;4960701;28;20133;-83
2022/05/10 07:54:36;;;;;;;8.50;4.75;;;19.50;99.90;;;;;;4978436;28;20043;-81
2022/05/10 07:57:03;;;;;;;8.80;4.47;;;19.50;99.90;;;;;;4960711;28;20090;-82
2022/05/10 07:59:30;;;;;;;13.57;4.57;;;19.50;99.90;;;;;;4944868;28;20439;-83
2022/05/10 08:01:56;;;;;;;8.73;4.38;;;19.60;99.90;;;;;;4960424;28;20051;-80
2022/05/10 08:04:22;;;;;;;10.23;4.22;;;19.60;99.90;;;;;;4960582;28;20049;-80
2022/05/10 08:06:48;;;;;;;12.30;5.28;;;19.70;99.90;;;;;;4978357;28;20047;-81
2022/05/10 08:09:14;;;;;;;9.60;4.57;;;19.70;99.90;;;;;;4960859;28;20081;-80
2022/05/10 08:11:41;;;;;;;14.50;4.63;;;19.70;99.90;;;;;;4960756;28;20413;-79
2022/05/10 08:14:06;;;;;;;12.00;5.00;;;19.80;99.90;;;;;;4961089;28;20506;-79
2022/05/10 08:16:33;;;;;;;9.23;4.20;;;19.80;99.90;;;;;;4960969;28;20091;-79
2022/05/10 08:18:59;;;;;;;11.88;4.47;;;19.90;99.90;;;;;;4960785;28;20050;-80
2022/05/10 08:21:25;;;;;;;7.60;3.88;;;19.90;99.90;;;;;;4960277;28;20046;-81
2022/05/10 08:23:52;;;;;;;11.75;4.05;;;20.00;99.90;;;;;;4977394;28;20086;-82
2022/05/10 08:26:20;;;;;;;8.63;5.20;;;20.10;99.90;;;;;;4977762;28;20039;-79
2022/05/10 08:28:45;;;;;;;11.00;3.53;;;20.10;99.90;;;;;;4960036;28;20046;-82
2022/05/10 08:31:11;;;;;;;8.52;4.30;;;20.20;99.90;;;;;;4944399;28;20038;-79
2022/05/10 08:33:40;;;;;;;8.07;3.55;;;20.20;99.90;;;;;;4977512;28;20479;-79
2022/05/10 08:36:08;;;;;;;8.32;3.70;;;20.30;99.90;;;;;;4959920;28;20134;-78
2022/05/10 08:38:34;;;;;;;9.00;3.65;;;20.30;99.90;;;;;;4977621;28;20050;-78
2022/05/10 08:41:09;;;;;;;8.77;3.95;;;20.40;99.90;;;;;;4960015;28;20065;-78
2022/05/10 08:43:44;;;;;;;10.75;3.60;;;20.40;99.90;;;;;;4959835;28;20077;-78
2022/05/10 08:46:14;;;;;;;10.75;4.28;;;20.40;99.90;;;;;;4960154;28;20465;-77
2022/05/10 08:48:40;;;;;;;9.02;4.00;;;20.50;99.90;;;;;;4976684;28;20039;-80
2022/05/10 08:51:07;;;;;;;9.27;4.78;;;20.50;99.90;;;;;;4959654;28;20049;-78
2022/05/10 08:53:33;;;;;;;10.30;4.57;;;20.60;99.90;;;;;;4959928;28;20045;-79
2022/05/10 08:56:21;;;;;;;8.07;4.22;;;20.60;99.90;;;;;;4976926;28;20113;-81
2022/05/10 08:59:09;;;;;;;8.60;4.13;;;20.60;99.90;;;;;;4977212;28;20081;-78
2022/05/10 09:01:45;;;;;;;11.38;4.30;;;20.60;99.90;;;;;;4959295;28;20038;-78
2022/05/10 09:04:37;;;;;;;9.07;4.47;;;20.70;99.90;;;;;;4960460;28;20054;-78
2022/05/10 09:07:24;;;;;;;9.38;4.22;;;20.80;99.90;;;;;;4974281;28;20062;-79
2022/05/10 09:10:45;;;;;;;11.27;4.28;;;20.80;99.90;;;;;;4960875;28;20047;-79
2022/05/10 09:13:15;;;;;;;12.32;4.60;;;20.90;99.90;;;;;;4880625;29;20056;-77
2022/05/10 09:15:46;;;;;;;10.65;4.60;;;21.00;99.90;;;;;;4957162;28;20437;-80
2022/05/10 09:18:31;;;;;;;11.10;4.95;;;21.10;99.90;;;;;;4959976;28;20055;-80
2022/05/10 09:21:16;;;;;;;11.65;4.70;;;21.20;99.90;;;;;;4959038;28;20046;-79
2022/05/10 09:24:32;;;;;;;11.95;4.80;;;21.30;99.90;;;;;;4958924;28;20059;-83
2022/05/10 09:27:04;;;;;;;10.40;4.60;;;21.40;99.90;;;;;;4864023;29;20050;-81
2022/05/10 09:29:33;;;;;;;14.93;5.57;;;21.40;99.90;;;;;;4863745;29;20045;-78
2022/05/10 09:35:00;;;;;;;12.93;5.83;;;21.50;99.90;;;;;;4976833;28;20125;-81
2022/05/10 09:37:31;;;;;;;13.18;5.35;;;21.40;99.90;;;;;;4976728;28;20094;-80
2022/05/10 09:39:57;;;;;;;11.93;5.00;;;21.50;99.90;;;;;;4942919;28;20488;-81
2022/05/10 09:42:33;;;;;;;9.57;5.22;;;21.50;99.90;;;;;;4944275;28;20045;-81
2022/05/10 09:45:17;;;;;;;9.93;5.57;;;21.50;99.90;;;;;;4980673;28;20045;-76
2022/05/10 09:48:07;;;;;;;9.80;5.40;;;21.50;99.90;;;;;;4968457;28;20107;-79
2022/05/10 09:50:51;;;;;;;12.02;5.80;;;21.60;99.90;;;;;;4965981;28;20039;-79
2022/05/10 09:53:30;;;;;;;14.20;5.50;;;21.60;99.90;;;;;;4943954;28;20039;-79
2022/05/10 09:56:21;;;;;;;12.68;5.38;;;21.70;99.90;;;;;;4976605;28;20110;-82
2022/05/10 09:59:28;;;;;;;9.85;5.60;;;21.70;99.90;;;;;;4958769;28;20049;-79
2022/05/10 10:01:57;;;;;;;10.05;5.75;;;21.80;99.90;;;;;;4931298;28;20101;-79
2022/05/10 10:04:31;;;;;;;10.23;5.40;;;21.80;99.90;;;;;;4958448;28;20054;-81
2022/05/10 10:07:16;;;;;;;7.77;4.73;;;21.90;99.90;;;;;;4958381;28;20042;-81
2022/05/10 10:09:52;;;;;;;10.73;6.18;;;22.20;99.90;;;;;;4942651;28;20057;-81
2022/05/10 10:12:36;;;;;;;9.60;5.55;;;22.30;99.90;;;;;;4958522;28;20379;-82
2022/05/10 10:15:34;;;;;;;11.38;5.97;;;22.50;99.90;;;;;;4958203;28;20046;-84
2022/05/10 10:18:06;;;;;;;9.43;5.72;;;22.60;99.90;;;;;;4958255;28;20049;-84
2022/05/10 10:20:52;;;;;;;11.70;6.15;;;22.50;99.90;;;;;;4975841;28;20083;-84
2022/05/10 10:23:32;;;;;;;14.85;6.40;;;22.50;99.90;;;;;;4958410;28;20050;-84
2022/05/10 10:26:17;;;;;;;12.40;6.05;;;22.50;99.90;;;;;;4943466;28;20043;-83
2022/05/10 10:29:13;;;;;;;14.10;6.22;;;22.50;99.90;;;;;;4958304;28;20038;-86
2022/05/10 10:31:58;;;;;;;10.95;5.90;;;22.50;99.90;;;;;;4975504;28;20065;-83
2022/05/10 10:34:54;;;;;;;10.70;6.17;;;22.60;99.90;;;;;;4975793;28;20043;-84
2022/05/10 10:37:38;;;;;;;13.82;6.82;;;22.50;99.90;;;;;;4958239;28;20047;-83
2022/05/10 10:40:06;;;;;;;11.70;5.80;;;22.50;99.90;;;;;;4957893;28;20051;-84
2022/05/10 10:42:40;;;;;;;11.20;6.50;;;22.50;99.90;;;;;;4975181;28;20118;-81
2022/05/10 10:45:12;;;;;;;11.75;5.65;;;22.40;99.90;;;;;;4957817;28;20053;-86
2022/05/10 10:48:03;;;;;;;8.48;5.28;;;22.40;99.90;;;;;;4958168;28;20058;-84
2022/05/10 10:50:35;;;;;;;11.75;4.80;;;22.40;99.90;;;;;;4975305;28;20174;-82
2022/05/10 10:53:04;;;;;;;10.27;4.35;;;22.30;99.90;;;;;;4957935;28;20039;-86
2022/05/10 10:55:57;;;;;;;10.55;4.18;;;22.00;99.90;;;;;;4957810;28;20042;-84
2022/05/10 10:58:59;;;;;;;14.00;3.58;;;22.10;99.90;;;;;;4957977;28;20054;-83
2022/05/10 11:01:43;;;;;;;6.53;3.88;;;22.00;99.90;;;;;;4957374;28;20046;-83
2022/05/10 11:05:03;;;;;;;12.77;3.90;;;21.90;99.90;;;;;;4975152;28;20452;-84
2022/05/10 11:08:02;;;;;;;10.48;3.88;;;21.90;99.90;;;;;;4863437;29;20072;-87
2022/05/10 11:10:33;;;;;;;6.30;3.08;;;22.00;99.90;;;;;;4958513;28;20050;-84
2022/05/10 11:13:12;;;;;;;16.38;4.22;;;22.00;99.90;;;;;;4957295;28;20050;-84
2022/05/10 11:16:01;;;;;;;8.35;3.30;;;22.10;99.90;;;;;;4941960;28;20039;-83
2022/05/10 11:18:52;;;;;;;8.48;3.67;;;22.20;99.90;;;;;;4957563;28;20051;-84
2022/05/10 11:21:43;;;;;;;12.00;4.43;;;22.20;99.90;;;;;;4974657;28;20158;-85
2022/05/10 11:24:39;;;;;;;9.23;3.95;;;22.10;99.90;;;;;;4957537;28;20047;-84
2022/05/10 11:27:40;;;;;;;;;;;22.10;99.90;;;;;;4957750;28;20526;-84
2022/05/10 11:30:11;;;;;;;9.82;3.80;;;22.10;99.90;;;;;;4861872;29;19976;-84
2022/05/10 11:32:47;;;;;;;9.25;4.03;;;22.40;99.90;;;;;;4941356;28;20087;-82
2022/05/10 11:35:34;;;;;;;15.60;4.65;;;22.60;99.90;;;;;;4974891;28;20068;-83
2022/05/10 11:38:37;;;;;;;9.13;3.88;;;22.60;99.90;;;;;;4974690;28;20047;-84
2022/05/10 11:41:35;;;;;;;12.45;3.90;;;22.70;99.60;;;;;;4974592;28;20047;-84
2022/05/10 11:44:22;;;;;;;12.18;4.63;;;22.70;99.90;;;;;;4961756;28;20456;-86
2022/05/10 11:47:10;;;;;;;10.35;4.53;;;22.90;99.90;;;;;;4941332;28;20121;-85
2022/05/10 11:50:14;;;;;;;11.95;4.75;;;23.10;99.70;;;;;;4957329;28;20427;-84
2022/05/10 11:53:16;;;;;;;19.85;6.00;;;23.20;99.90;;;;;;4921238;28;20086;-84
2022/05/10 11:55:58;;;;;;;12.63;6.22;;;22.90;99.90;;;;;;4956916;28;20101;-82
2022/05/10 11:58:28;;;;;;;15.02;6.80;;;22.80;99.90;;;;;;4958032;28;20058;-82
2022/05/10 12:00:58;;;;;;;14.30;5.72;;;22.70;99.90;;;;;;4941314;28;20105;-85
2022/05/10 12:03:44;;;;;;;11.63;5.43;;;22.60;99.90;;;;;;4974577;28;20057;-85
2022/05/10 12:06:22;;;;;;;9.57;4.88;;;22.50;99.90;;;;;;4925275;28;20143;-80
2022/05/10 12:08:55;;;;;;;11.35;4.80;;;22.40;99.90;;;;;;4956890;28;20487;-84
2022/05/10 12:11:33;;;;;;;9.60;4.40;;;22.30;99.90;;;;;;4973835;28;20165;-84
2022/05/10 12:23:00;;;;;;;13.20;4.93;;;22.00;99.90;;;;;;4956718;28;20042;-85
2022/05/10 12:25:55;;;;;;;21.00;5.20;;;22.00;99.90;;;;;;4944360;28;20106;-84
2022/05/10 12:28:43;;;;;;;11.25;3.78;;;22.30;99.90;;;;;;4978165;28;20035;-86
2022/05/10 12:31:31;;;;;;;12.55;3.63;;;22.40;99.90;;;;;;4977793;28;20035;-81
2022/05/10 12:34:00;;;;;;;8.98;3.50;;;22.40;99.90;;;;;;4960317;28;20043;-85
2022/05/10 12:36:39;;;;;;;13.75;3.20;;;22.50;99.90;;;;;;4977821;28;20395;-81
2022/05/10 12:39:25;;;;;;;9.10;3.45;;;22.40;99.90;;;;;;4978020;28;20592;-86
2022/05/10 12:42:25;;;;;;;12.98;3.50;;;22.30;99.90;;;;;;4944260;28;20045;-80
2022/05/10 12:45:13;;;;;;;11.68;3.10;;;22.20;99.90;;;;;;4959977;28;20454;-82
2022/05/10 12:48:05;;;;;;;7.60;2.92;;;22.10;99.90;;;;;;4978006;28;20039;-84
2022/05/10 12:50:58;;;;;;;6.22;3.30;;;22.00;99.90;;;;;;4960812;28;20046;-83
2022/05/10 12:53:30;;;;;;;8.60;2.90;;;22.00;99.90;;;;;;4943815;28;20074;-82
2022/05/10 12:56:12;;;;;;;10.90;3.92;;;21.90;99.90;;;;;;4959771;28;20058;-82
2022/05/10 12:58:43;;;;;;;8.05;3.03;;;21.70;99.90;;;;;;4977270;28;20053;-83
2022/05/10 13:01:12;;;;;;;11.27;3.03;;;21.70;99.90;;;;;;4943883;28;20387;-84
2022/05/10 13:03:46;;;;;;;10.52;3.20;;;21.50;99.90;;;;;;4977214;28;20178;-83
2022/05/10 13:06:30;;;;;;;8.90;2.60;;;21.40;99.90;;;;;;4943656;28;20066;-82
2022/05/10 13:09:16;;;;;;;9.23;3.00;;;21.30;99.90;;;;;;4959935;28;20046;-82
2022/05/10 13:12:21;;;;;;;12.18;3.15;;;21.20;99.90;;;;;;4977267;28;20431;-84
2022/05/10 13:14:52;;;;;;;14.27;3.28;;;21.20;99.90;;;;;;4977236;28;20047;-81
2022/05/10 13:17:32;;;;;;;6.80;2.42;;;21.00;99.90;;;;;;4959399;28;20050;-83
2022/05/10 13:19:59;;;;;;;8.50;2.67;;;21.10;99.90;;;;;;4944576;28;20043;-82
2022/05/10 13:22:27;;;;;;;9.35;3.20;;;21.10;99.90;;;;;;4959271;28;20099;-85
2022/05/10 13:24:55;;;;;;;10.95;3.03;;;21.10;99.90;;;;;;4959219;28;20106;-79
2022/05/10 13:27:31;;;;;;;10.77;2.45;;;21.10;99.90;;;;;;4959754;28;20114;-82
2022/05/10 13:30:12;;;;;;;7.15;2.55;;;21.10;99.90;;;;;;4959250;28;20551;-83
2022/05/10 13:32:37;;;;;;;8.82;2.30;;;21.00;99.90;;;;;;4959019;28;20471;-84
2022/05/10 13:35:14;;;;;;;12.93;2.75;;;21.00;99.90;;;;;;4958922;28;20057;-84
2022/05/10 13:37:58;;;;;;;9.48;2.25;;;21.00;99.90;;;;;;4943566;28;20074;-83
2022/05/10 13:40:40;;;;;;;6.53;1.80;;;21.00;99.90;;;;;;4959411;28;20123;-85
2022/05/10 13:43:16;;;;;;;6.20;1.40;;;21.00;98.40;;;;;;4976314;28;20380;-83
2022/05/10 13:45:48;;;;;;;3.70;1.30;;;20.90;96.30;;;;;;4976496;28;20045;-82
2022/05/10 13:48:15;;;;;;;2.85;1.08;;;20.70;95.10;;;;;;4976429;28;20511;-82
2022/05/10 13:50:41;;;;;;;4.63;0.98;;;20.60;95.00;;;;;;4959398;28;20130;-84
2022/05/10 13:53:10;;;;;;;8.02;1.10;;;20.50;94.50;;;;;;4943564;28;20039;-85
2022/05/10 13:55:42;;;;;;;4.50;0.90;;;20.60;94.00;;;;;;4975914;28;20047;-83
2022/05/10 13:58:08;;;;;;;3.40;0.80;;;20.40;92.00;;;;;;4959052;28;20395;-85
2022/05/10 14:00:42;;;;;;;1.98;0.60;;;20.30;91.90;;;;;;4942604;28;20491;-82
2022/05/10 14:03:18;;;;;;;3.20;0.75;;;20.40;92.20;;;;;;4976142;28;20085;-82
2022/05/10 14:05:46;;;;;;;4.25;0.98;;;20.20;91.70;;;;;;4958661;28;20491;-82
2022/05/10 14:08:19;;;;;;;2.05;0.63;;;20.10;91.70;;;;;;4943296;28;20042;-82
2022/05/10 14:11:02;;;;;;;3.85;0.90;;;20.00;91.80;;;;;;4958186;28;20126;-81
2022/05/10 14:13:29;;;;;;;4.63;0.70;;;20.00;92.00;;;;;;4958631;28;20478;-81
2022/05/10 14:15:54;;;;;;;3.95;0.70;;;19.80;92.00;;;;;;4942412;28;20391;-86
2022/05/10 14:18:29;;;;;;;4.70;0.80;;;19.70;92.30;;;;;;4958782;28;20050;-85
2022/05/10 14:21:02;;;;;;;4.00;0.90;;;19.50;93.00;;;;;;4942332;28;20483;-85
2022/05/10 14:23:32;;;;;;;4.32;1.00;;;19.60;94.00;;;;;;4958398;28;20043;-84
2022/05/10 14:26:00;;;;;;;4.70;0.98;;;19.60;94.70;;;;;;4958057;28;20047;-85
2022/05/10 14:28:33;;;;;;;5.38;1.00;;;19.40;95.20;;;;;;4958218;28;20094;-83
2022/05/10 14:31:11;;;;;;;3.95;1.00;;;19.20;95.50;;;;;;4942657;28;20042;-86
2022/05/10 14:33:40;;;;;;;3.90;1.20;;;19.10;96.50;;;;;;4941997;28;20046;-81
2022/05/10 14:36:09;;;;;;;8.35;2.63;;;19.00;96.80;;;;;;4975405;28;20042;-83
2022/05/10 14:38:37;;;;;;;7.53;2.97;;;18.70;97.00;;;;;;4942368;28;20042;-82
2022/05/10 14:41:05;;;;;;;8.98;1.67;;;18.70;97.10;;;;;;4975841;28;20388;-82
2022/05/10 14:43:31;;;;;;;9.27;1.13;;;18.60;97.60;;;;;;4976230;28;20038;-83
2022/05/10 14:45:59;;;;;;;4.70;1.38;;;18.60;97.90;;;;;;4941607;28;20046;-81
2022/05/10 14:48:34;;;;;;;5.90;1.08;;;18.40;98.20;;;;;;4958924;28;20487;-83
2022/05/10 14:51:03;;;;;;;4.80;1.50;;;18.40;98.80;;;;;;4958133;28;20039;-82
2022/05/10 14:53:50;;;;;;;5.10;1.30;;;18.40;98.60;;;;;;4943087;28;20126;-86
2022/05/10 14:56:19;;;;;;;4.32;1.10;;;18.30;98.80;;;;;;4975568;28;20070;-84
2022/05/10 14:58:48;;;;;;;7.63;1.48;;;18.30;99.10;;;;;;4975238;28;20085;-85
2022/05/10 15:01:24;;;;;;;4.93;1.30;;;18.30;99.30;;;;;;4975378;28;20435;-85
2022/05/10 15:04:16;;;;;;;5.22;1.23;;;18.30;99.40;;;;;;4958670;28;20097;-86
2022/05/10 15:06:44;;;;;;;3.35;0.95;;;18.30;99.20;;;;;;4958326;28;20368;-85
2022/05/10 15:09:09;;;;;;;3.88;1.00;;;18.20;97.00;;;;;;4957862;28;20038;-83
2022/05/10 15:14:21;;;;;;;4.97;1.00;;;18.10;96.10;;;;;;4957539;28;20487;-86
2022/05/10 15:16:46;;;;;;;4.20;0.95;;;18.00;96.00;;;;;;4941457;28;20046;-86
2022/05/10 15:19:12;;;;;;;4.45;1.20;;;17.90;95.90;;;;;;4957876;28;20046;-85
2022/05/10 15:21:38;;;;;;;7.38;1.20;;;17.90;96.30;;;;;;4957999;28;20046;-84
2022/05/10 15:24:06;;;;;;;7.10;1.33;;;17.90;96.50;;;;;;4974895;28;20134;-79
2022/05/10 15:26:47;;;;;;;3.28;1.20;;;17.80;96.70;;;;;;4957645;28;20438;-83
2022/05/10 15:29:20;;;;;;;5.03;1.20;;;17.70;96.80;;;;;;4941717;28;20039;-85
2022/05/10 15:31:46;;;;;;;7.80;1.30;;;17.70;97.40;;;;;;4974416;28;20487;-82
2022/05/10 15:36:56;;;;;;;4.10;1.08;;;17.70;98.40;;;;;;4974700;28;20054;-85
2022/05/10 15:39:22;;;;;;;6.53;1.55;;;17.70;98.60;;;;;;4957795;28;20126;-84
2022/05/10 15:41:48;;;;;;;6.93;1.50;;;17.70;99.20;;;;;;4957246;28;20125;-83
2022/05/10 15:44:14;;;;;;;7.70;1.98;;;17.70;99.90;;;;;;4957289;28;20046;-83
2022/05/10 15:46:43;;;;;;;5.50;1.83;;;17.70;99.90;;;;;;4974710;28;20039;-84
2022/05/10 15:49:11;;;;;;;4.93;1.42;;;17.60;99.90;;;;;;4957229;28;20475;-83
2022/05/10 15:51:41;;;;;;;4.13;1.42;;;17.60;99.90;;;;;;4957411;28;20043;-84
2022/05/10 15:54:09;;;;;;;7.15;1.60;;;17.60;99.90;;;;;;4974737;28;20050;-85
2022/05/10 15:56:35;;;;;;;4.90;1.65;;;17.50;99.90;;;;;;4941830;28;20054;-83
2022/05/10 15:59:01;;;;;;;5.45;1.63;;;17.50;99.90;;;;;;4943263;28;20046;-84
2022/05/10 16:01:26;;;;;;;8.13;1.40;;;17.50;99.90;;;;;;4963381;28;20094;-84
2022/05/10 16:03:52;;;;;;;6.45;1.60;;;17.40;99.90;;;;;;4965007;28;20053;-83
2022/05/10 16:06:18;;;;;;;6.65;1.48;;;17.40;99.90;;;;;;4985960;28;20067;-84
2022/05/10 16:08:43;;;;;;;7.25;1.50;;;17.30;99.90;;;;;;4973481;28;20042;-79
2022/05/10 16:11:09;;;;;;;5.57;1.48;;;17.30;99.90;;;;;;4965070;28;20499;-84
2022/05/10 16:13:35;;;;;;;5.82;2.00;;;17.30;99.90;;;;;;4998812;28;20034;-85
2022/05/10 16:16:01;;;;;;;6.80;1.77;;;17.10;99.90;;;;;;4984864;28;20384;-84
2022/05/10 16:18:26;;;;;;;5.30;2.10;;;17.20;99.90;;;;;;4981273;28;20375;-83
2022/05/10 16:20:53;;;;;;;10.38;2.53;;;17.10;99.90;;;;;;4947489;28;20065;-84
2022/05/10 16:23:20;;;;;;;5.35;2.10;;;17.10;99.90;;;;;;4962929;28;20051;-84
2022/05/10 16:25:46;;;;;;;7.68;2.08;;;17.10;99.90;;;;;;4962216;28;20039;-83
2022/05/10 16:30:57;;;;;;;9.05;2.20;;;17.10;99.90;;;;;;4961426;28;20107;-84